<?xml version="1.0" encoding="UTF-8" standalone="no" ?>
<gpx xmlns="http://www.topografix.com/GPX/1/1" xmlns:xsi="http://www.w3.org/2001/XMLSchema-instance" xsi:schemaLocation="http://www.topografix.com/GPX/1/1 http://www.topografix.com/GPX/1/1/gpx.xsd" version="1.1" creator="VisuGPX - https://www.visugpx.com">
  <metadata>
    <name>Turquie_100points</name>
  </metadata>
  <trk>
    <name><![CDATA[tour-d-europe-etape-522]]></name>
    <extensions>
      <line xmlns="http://www.topografix.com/GPX/gpx_style/0/2">
        <color>FF0000</color>
        <width>4</width>
      </line>
    </extensions>
    <trkseg>
      <trkpt lat="41.18818" lon="41.82696">
        <ele>221.6</ele>
        <time>2021-12-02T05:29:33.501Z</time>
      </trkpt>
      <trkpt lat="41.1882" lon="41.8281">
        <ele>222.8</ele>
        <time>2021-12-02T05:30:10.493Z</time>
      </trkpt>
      <trkpt lat="41.1879" lon="41.83013">
        <ele>231.9</ele>
        <time>2021-12-02T05:32:11.490Z</time>
      </trkpt>
      <trkpt lat="41.18749" lon="41.82972">
        <ele>218.5</ele>
        <time>2021-12-02T05:33:20.494Z</time>
      </trkpt>
      <trkpt lat="41.18692" lon="41.83221">
        <ele>220.3</ele>
        <time>2021-12-02T05:34:28.498Z</time>
      </trkpt>
      <trkpt lat="41.18622" lon="41.83457">
        <ele>221.5</ele>
        <time>2021-12-02T05:35:26.489Z</time>
      </trkpt>
      <trkpt lat="41.18432" lon="41.83609">
        <ele>219.7</ele>
        <time>2021-12-02T05:45:59.532Z</time>
      </trkpt>
      <trkpt lat="41.18232" lon="41.83596">
        <ele>218.5</ele>
        <time>2021-12-02T05:47:28.483Z</time>
      </trkpt>
      <trkpt lat="41.1804" lon="41.83781">
        <ele>218.4</ele>
        <time>2021-12-02T05:49:20.493Z</time>
      </trkpt>
      <trkpt lat="41.17853" lon="41.83866">
        <ele>218.9</ele>
        <time>2021-12-02T05:50:02.501Z</time>
      </trkpt>
      <trkpt lat="41.17745" lon="41.84078">
        <ele>222.1</ele>
        <time>2021-12-02T05:50:52.499Z</time>
      </trkpt>
      <trkpt lat="41.17836" lon="41.84359">
        <ele>234.8</ele>
        <time>2021-12-02T05:51:52.483Z</time>
      </trkpt>
      <trkpt lat="41.17991" lon="41.84581">
        <ele>227.7</ele>
        <time>2021-12-02T05:52:52.477Z</time>
      </trkpt>
      <trkpt lat="41.18159" lon="41.84791">
        <ele>226.7</ele>
        <time>2021-12-02T05:53:51.518Z</time>
      </trkpt>
      <trkpt lat="41.18206" lon="41.8507">
        <ele>237.1</ele>
        <time>2021-12-02T05:54:48.492Z</time>
      </trkpt>
      <trkpt lat="41.18097" lon="41.85357">
        <ele>238.8</ele>
        <time>2021-12-02T05:55:49.490Z</time>
      </trkpt>
      <trkpt lat="41.18007" lon="41.85551">
        <ele>230.9</ele>
        <time>2021-12-02T05:56:55.534Z</time>
      </trkpt>
      <trkpt lat="41.17951" lon="41.85369">
        <ele>237.2</ele>
        <time>2021-12-02T05:58:23.506Z</time>
      </trkpt>
      <trkpt lat="41.18013" lon="41.85124">
        <ele>254.8</ele>
        <time>2021-12-02T06:00:33.494Z</time>
      </trkpt>
      <trkpt lat="41.18019" lon="41.84877">
        <ele>269.5</ele>
        <time>2021-12-02T06:02:49.530Z</time>
      </trkpt>
      <trkpt lat="41.1785" lon="41.84779">
        <ele>283.9</ele>
        <time>2021-12-02T06:05:13.511Z</time>
      </trkpt>
      <trkpt lat="41.17691" lon="41.84834">
        <ele>302.8</ele>
        <time>2021-12-02T06:07:39.525Z</time>
      </trkpt>
      <trkpt lat="41.17834" lon="41.84972">
        <ele>317.8</ele>
        <time>2021-12-02T06:10:13.498Z</time>
      </trkpt>
      <trkpt lat="41.17914" lon="41.85114">
        <ele>331</ele>
        <time>2021-12-02T06:12:41.514Z</time>
      </trkpt>
      <trkpt lat="41.17813" lon="41.85327">
        <ele>347.6</ele>
        <time>2021-12-02T06:15:12.508Z</time>
      </trkpt>
      <trkpt lat="41.17771" lon="41.85575">
        <ele>364.5</ele>
        <time>2021-12-02T06:17:35.515Z</time>
      </trkpt>
      <trkpt lat="41.17798" lon="41.85816">
        <ele>382.2</ele>
        <time>2021-12-02T06:20:02.497Z</time>
      </trkpt>
      <trkpt lat="41.17827" lon="41.86061">
        <ele>392.7</ele>
        <time>2021-12-02T06:22:33.535Z</time>
      </trkpt>
      <trkpt lat="41.17862" lon="41.86302">
        <ele>411.2</ele>
        <time>2021-12-02T06:25:08.499Z</time>
      </trkpt>
      <trkpt lat="41.17744" lon="41.86348">
        <ele>425.7</ele>
        <time>2021-12-02T06:27:36.512Z</time>
      </trkpt>
      <trkpt lat="41.17549" lon="41.86323">
        <ele>435.4</ele>
        <time>2021-12-02T06:30:10.508Z</time>
      </trkpt>
      <trkpt lat="41.16503" lon="41.8696">
        <ele>441.1</ele>
        <time>2021-12-02T06:36:26.175Z</time>
      </trkpt>
      <trkpt lat="41.1631" lon="41.8739">
        <ele>457.3</ele>
        <time>2021-12-02T06:38:13.176Z</time>
      </trkpt>
      <trkpt lat="41.16322" lon="41.87662">
        <ele>458.2</ele>
        <time>2021-12-02T06:39:17.194Z</time>
      </trkpt>
      <trkpt lat="41.14571" lon="41.89047">
        <ele>437.8</ele>
        <time>2021-12-02T06:49:26.177Z</time>
      </trkpt>
      <trkpt lat="41.14243" lon="41.88977">
        <ele>441</ele>
        <time>2021-12-02T06:51:24.188Z</time>
      </trkpt>
      <trkpt lat="41.1406" lon="41.89002">
        <ele>444</ele>
        <time>2021-12-02T06:52:34.203Z</time>
      </trkpt>
      <trkpt lat="41.13167" lon="41.88852">
        <ele>504.5</ele>
        <time>2021-12-02T06:58:10.105Z</time>
      </trkpt>
      <trkpt lat="41.12917" lon="41.88168">
        <ele>480.1</ele>
        <time>2021-12-02T07:02:10.529Z</time>
      </trkpt>
      <trkpt lat="41.12491" lon="41.87086">
        <ele>511.3</ele>
        <time>2021-12-02T07:08:56.977Z</time>
      </trkpt>
      <trkpt lat="41.11899" lon="41.85669">
        <ele>500.9</ele>
        <time>2021-12-02T07:18:06.615Z</time>
      </trkpt>
      <trkpt lat="41.11224" lon="41.84849">
        <ele>504.2</ele>
        <time>2021-12-02T07:24:56.134Z</time>
      </trkpt>
      <trkpt lat="41.10836" lon="41.82983">
        <ele>523</ele>
        <time>2021-12-02T07:34:22.604Z</time>
      </trkpt>
      <trkpt lat="41.10342" lon="41.8189">
        <ele>499.5</ele>
        <time>2021-12-02T07:40:31.905Z</time>
      </trkpt>
      <trkpt lat="41.08733" lon="41.81644">
        <ele>483.1</ele>
        <time>2021-12-02T07:52:19.922Z</time>
      </trkpt>
      <trkpt lat="41.06612" lon="41.79852">
        <ele>433.7</ele>
        <time>2021-12-02T08:08:12.275Z</time>
      </trkpt>
      <trkpt lat="41.04357" lon="41.79972">
        <ele>436.2</ele>
        <time>2021-12-02T08:22:03.340Z</time>
      </trkpt>
      <trkpt lat="41.0334" lon="41.80195">
        <ele>409.9</ele>
        <time>2021-12-02T08:28:30.427Z</time>
      </trkpt>
      <trkpt lat="41.02099" lon="41.78965">
        <ele>422.4</ele>
        <time>2021-12-02T08:38:20.124Z</time>
      </trkpt>
      <trkpt lat="41.01189" lon="41.78122">
        <ele>402.9</ele>
        <time>2021-12-02T08:45:26.072Z</time>
      </trkpt>
      <trkpt lat="41.00577" lon="41.7721">
        <ele>420.4</ele>
        <time>2021-12-02T08:52:06.216Z</time>
      </trkpt>
      <trkpt lat="40.99674" lon="41.76417">
        <ele>409.7</ele>
        <time>2021-12-02T09:00:46.157Z</time>
      </trkpt>
      <trkpt lat="40.98798" lon="41.75959">
        <ele>504.6</ele>
        <time>2021-12-02T09:08:00.462Z</time>
      </trkpt>
      <trkpt lat="40.95819" lon="41.75674">
        <ele>449.1</ele>
        <time>2021-12-02T09:26:17.450Z</time>
      </trkpt>
      <trkpt lat="40.95179" lon="41.76221">
        <ele>424.7</ele>
        <time>2021-12-02T09:32:03.491Z</time>
      </trkpt>
      <trkpt lat="40.94136" lon="41.76348">
        <ele>488.8</ele>
        <time>2021-12-02T09:38:48.263Z</time>
      </trkpt>
      <trkpt lat="40.92087" lon="41.75472">
        <ele>554.4</ele>
        <time>2021-12-02T09:52:15.871Z</time>
      </trkpt>
      <trkpt lat="40.90863" lon="41.73619">
        <ele>572.8</ele>
        <time>2021-12-02T10:04:02.446Z</time>
      </trkpt>
      <trkpt lat="40.88753" lon="41.71992">
        <ele>459.7</ele>
        <time>2021-12-02T10:18:57.416Z</time>
      </trkpt>
      <trkpt lat="40.86411" lon="41.69977">
        <ele>559.5</ele>
        <time>2021-12-02T10:35:47.045Z</time>
      </trkpt>
      <trkpt lat="40.86205" lon="41.70025">
        <ele>548.1</ele>
        <time>2021-12-02T10:36:32.028Z</time>
      </trkpt>
      <trkpt lat="40.85815" lon="41.70019">
        <ele>547.2</ele>
        <time>2021-12-02T10:37:51.003Z</time>
      </trkpt>
      <trkpt lat="40.85613" lon="41.70006">
        <ele>549.3</ele>
        <time>2021-12-02T10:38:34.000Z</time>
      </trkpt>
      <trkpt lat="40.84852" lon="41.69172">
        <ele>534.7</ele>
        <time>2021-12-02T10:42:04.063Z</time>
      </trkpt>
      <trkpt lat="40.8402" lon="41.67758">
        <ele>588.8</ele>
        <time>2021-12-02T10:50:01.998Z</time>
      </trkpt>
      <trkpt lat="40.83817" lon="41.67715">
        <ele>587.1</ele>
        <time>2021-12-02T10:51:25.024Z</time>
      </trkpt>
      <trkpt lat="40.83618" lon="41.67674">
        <ele>595.4</ele>
        <time>2021-12-02T10:53:10.007Z</time>
      </trkpt>
      <trkpt lat="40.83471" lon="41.66881">
        <ele>616.3</ele>
        <time>2021-12-02T10:57:17.026Z</time>
      </trkpt>
      <trkpt lat="40.83423" lon="41.66626">
        <ele>616</ele>
        <time>2021-12-02T10:58:37.031Z</time>
      </trkpt>
      <trkpt lat="40.83308" lon="41.6574">
        <ele>817.9</ele>
        <time>2021-12-02T11:04:43.230Z</time>
      </trkpt>
      <trkpt lat="40.82886" lon="41.63262">
        <ele>1414.5</ele>
        <time>2021-12-02T11:15:47.701Z</time>
      </trkpt>
      <trkpt lat="40.82464" lon="41.60783">
        <ele>692.2</ele>
        <time>2021-12-02T11:26:52.214Z</time>
      </trkpt>
      <trkpt lat="40.81536" lon="41.5869">
        <ele>954.1</ele>
        <time>2021-12-02T11:38:05.582Z</time>
      </trkpt>
      <trkpt lat="40.81827" lon="41.56228">
        <ele>752.2</ele>
        <time>2021-12-02T11:49:32.822Z</time>
      </trkpt>
      <trkpt lat="40.81629" lon="41.5625">
        <ele>760.6</ele>
        <time>2021-12-02T11:56:09.513Z</time>
      </trkpt>
      <trkpt lat="40.81701" lon="41.56076">
        <ele>729.4</ele>
        <time>2021-12-02T11:56:49.501Z</time>
      </trkpt>
      <trkpt lat="40.81494" lon="41.56079">
        <ele>686.4</ele>
        <time>2021-12-02T11:57:28.520Z</time>
      </trkpt>
      <trkpt lat="40.81323" lon="41.56281">
        <ele>647.8</ele>
        <time>2021-12-02T11:58:08.513Z</time>
      </trkpt>
      <trkpt lat="40.81254" lon="41.56303">
        <ele>621.4</ele>
        <time>2021-12-02T11:58:53.495Z</time>
      </trkpt>
      <trkpt lat="40.81322" lon="41.56119">
        <ele>622.7</ele>
        <time>2021-12-02T12:03:37.514Z</time>
      </trkpt>
      <trkpt lat="40.81399" lon="41.55889">
        <ele>632.8</ele>
        <time>2021-12-02T12:05:09.507Z</time>
      </trkpt>
      <trkpt lat="40.81397" lon="41.55622">
        <ele>628.1</ele>
        <time>2021-12-02T12:06:05.498Z</time>
      </trkpt>
      <trkpt lat="40.81326" lon="41.55359">
        <ele>628.6</ele>
        <time>2021-12-02T12:07:14.509Z</time>
      </trkpt>
      <trkpt lat="40.81252" lon="41.55098">
        <ele>628.9</ele>
        <time>2021-12-02T12:08:16.508Z</time>
      </trkpt>
      <trkpt lat="40.814" lon="41.54959">
        <ele>622.1</ele>
        <time>2021-12-02T12:09:13.515Z</time>
      </trkpt>
      <trkpt lat="40.81585" lon="41.5487">
        <ele>619.3</ele>
        <time>2021-12-02T12:10:05.504Z</time>
      </trkpt>
      <trkpt lat="40.81701" lon="41.54686">
        <ele>628.1</ele>
        <time>2021-12-02T12:11:07.489Z</time>
      </trkpt>
      <trkpt lat="40.81855" lon="41.54499">
        <ele>639.7</ele>
        <time>2021-12-02T12:12:21.496Z</time>
      </trkpt>
      <trkpt lat="40.82038" lon="41.54369">
        <ele>649.3</ele>
        <time>2021-12-02T12:13:37.487Z</time>
      </trkpt>
      <trkpt lat="40.82002" lon="41.54312">
        <ele>649.3</ele>
        <time>2021-12-02T12:16:16.552Z</time>
      </trkpt>
    </trkseg>
  </trk>
</gpx>